Time;durP1;ratioP1;P1;durP2;ratioP2;P2;SDS_P1;SDS_P2;PMS_P1;PMS_P2;Temp;Humidity;BMP_temperature;BMP_pressure;BME280_temperature;BME280_humidity;BME280_pressure;Samples;Min_cycle;Max_cycle;Signal;HPM_P1;HPM_P2
2022/10/25 00:00:45;;;;;;;8.15;3.05;;;;;;;14.11;100.00;100466.78;4992516;28;20061;-84
2022/10/25 00:03:12;;;;;;;8.27;3.03;;;;;;;14.10;99.98;100473.03;4966521;28;20042;-84
2022/10/25 00:05:40;;;;;;;8.32;3.50;;;;;;;14.09;100.00;100476.63;4982630;28;20101;-84
2022/10/25 00:08:08;;;;;;;13.45;3.05;;;;;;;13.98;100.00;100471.31;4974633;28;20097;-83
2022/10/25 00:10:36;;;;;;;7.63;2.85;;;;;;;13.97;100.00;100474.91;4995762;28;20065;-82
2022/10/25 00:13:04;;;;;;;10.38;2.90;;;;;;;13.98;100.00;100478.41;4966504;28;20043;-83
2022/10/25 00:15:32;;;;;;;8.75;3.10;;;;;;;13.93;100.00;100469.00;4974139;28;20046;-84
2022/10/25 00:18:00;;;;;;;15.40;3.20;;;;;;;13.93;100.00;100466.38;4990855;28;20050;-83
2022/10/25 00:20:27;;;;;;;6.85;2.40;;;;;;;13.92;100.00;100474.44;4973430;28;20048;-84
2022/10/25 00:22:56;;;;;;;7.93;3.03;;;;;;;13.93;100.00;100466.38;4955526;28;20042;-83
2022/10/25 00:25:23;;;;;;;8.93;3.28;;;;;;;13.90;100.00;100463.09;4968828;28;20065;-84
2022/10/25 00:27:51;;;;;;;8.32;3.25;;;;;;;13.87;100.00;100469.47;4972783;28;20488;-84
2022/10/25 00:30:19;;;;;;;7.25;2.80;;;;;;;13.81;100.00;100471.72;4959581;28;20501;-83
2022/10/25 00:32:51;;;;;;;12.82;3.70;;;;;;;13.85;100.00;100473.19;4996313;28;20061;-84
2022/10/25 00:35:19;;;;;;;14.13;3.15;;;;;;;13.85;100.00;100471.38;4972732;28;20125;-84
2022/10/25 00:37:46;;;;;;;6.75;3.10;;;;;;;13.79;100.00;100471.84;4961839;28;20057;-84
2022/10/25 00:40:14;;;;;;;10.90;3.63;;;;;;;13.73;100.00;100476.75;4969780;28;20070;-83
2022/10/25 00:42:41;;;;;;;10.25;3.15;;;;;;;13.72;100.00;100470.63;5011215;28;20293;-84
2022/10/25 00:45:23;;;;;;;10.93;3.70;;;;;;;13.75;100.00;100474.84;4979996;28;20092;-84
2022/10/25 00:47:55;;;;;;;14.27;4.40;;;;;;;13.68;100.00;100471.78;4980497;28;20374;-84
2022/10/25 00:50:33;;;;;;;8.05;3.33;;;;;;;13.63;100.00;100476.59;4957139;28;20050;-83
2022/10/25 00:53:05;;;;;;;10.15;3.70;;;;;;;13.57;100.00;100477.06;4986296;28;20050;-83
2022/10/25 00:55:33;;;;;;;9.40;2.95;;;;;;;13.56;100.00;100480.66;4992874;28;20601;-85
2022/10/25 00:58:05;;;;;;;8.25;3.08;;;;;;;13.52;100.00;100471.25;4982372;28;20094;-84
2022/10/25 01:00:32;;;;;;;10.00;3.17;;;;;;;13.54;100.00;100480.75;4972041;28;20038;-84
2022/10/25 01:03:00;;;;;;;8.05;3.08;;;;;;;13.55;100.00;100485.06;4963061;28;20046;-83
2022/10/25 01:05:27;;;;;;;9.40;3.58;;;;;;;13.59;100.00;100480.41;4965114;28;20038;-84
2022/10/25 01:07:55;;;;;;;9.25;2.83;;;;;;;13.65;100.00;100480.81;4980605;28;20053;-83
2022/10/25 01:10:23;;;;;;;7.57;3.30;;;;;;;13.65;100.00;100478.19;4958710;28;20066;-84
2022/10/25 01:12:51;;;;;;;8.30;3.13;;;;;;;13.68;100.00;100477.94;4977927;28;20046;-83
2022/10/25 01:15:22;;;;;;;7.53;2.95;;;;;;;13.70;100.00;100477.84;4983617;28;20110;-83
2022/10/25 01:18:17;;;;;;;9.30;3.13;;;;;;;13.71;100.00;100473.38;4963582;28;20060;-82
2022/10/25 01:20:47;;;;;;;10.35;4.00;;;;;;;13.70;100.00;100469.06;4960433;28;20054;-83
2022/10/25 01:23:37;;;;;;;10.30;3.72;;;;;;;13.67;100.00;100476.25;4994477;28;20049;-84
2022/10/25 01:26:11;;;;;;;7.20;2.78;;;;;;;13.63;100.00;100473.94;5010910;28;20114;-82
2022/10/25 01:29:07;;;;;;;9.67;2.80;;;;;;;13.54;100.00;100464.88;4977338;28;20045;-82
2022/10/25 01:31:45;;;;;;;12.27;3.63;;;;;;;13.53;100.00;100470.28;4975269;28;20034;-82
2022/10/25 01:34:24;;;;;;;11.05;3.55;;;;;;;13.57;100.00;100471.75;4965422;28;20046;-82
2022/10/25 01:37:02;;;;;;;8.70;3.50;;;;;;;13.58;100.00;100468.16;4957894;28;20113;-82
2022/10/25 01:39:34;;;;;;;6.53;3.35;;;;;;;13.52;100.00;100482.69;4962975;28;20109;-83
2022/10/25 01:42:08;;;;;;;10.35;3.75;;;;;;;13.53;100.00;100479.06;4957850;28;20445;-83
2022/10/25 01:44:43;;;;;;;12.70;3.70;;;;;;;13.56;100.00;100475.38;4976778;28;20494;-83
2022/10/25 01:47:24;;;;;;;8.45;3.58;;;;;;;13.60;100.00;100472.38;4972745;28;20054;-83
2022/10/25 01:49:57;;;;;;;8.30;3.67;;;;;;;13.61;100.00;100474.06;4967681;28;20058;-82
2022/10/25 01:52:24;;;;;;;9.93;3.40;;;;;;;13.68;100.00;100467.34;4963457;28;20077;-81
2022/10/25 01:54:52;;;;;;;14.10;3.75;;;;;;;13.60;100.00;100467.09;4976250;28;20145;-83
2022/10/25 01:57:39;;;;;;;9.90;3.40;;;;;;;13.57;100.00;100461.19;4966575;28;20096;-83
2022/10/25 02:00:12;;;;;;;11.70;3.67;;;;;;;13.55;100.00;100455.16;4950351;28;20141;-83
2022/10/25 02:07:24;;;;;;;7.53;3.10;;;;;;;13.56;100.00;100468.28;5000218;28;20048;-83
2022/10/25 02:09:58;;;;;;;9.35;3.22;;;;;;;13.55;100.00;100469.22;4969696;28;20054;-83
2022/10/25 02:12:55;;;;;;;7.72;2.80;;;;;;;13.59;100.00;100469.84;5002132;28;20053;-83
2022/10/25 02:15:24;;;;;;;14.23;3.88;;;;;;;13.61;100.00;100473.22;4948134;28;20046;-82
2022/10/25 02:17:58;;;;;;;10.32;3.03;;;;;;;13.60;100.00;100467.09;4947833;28;20154;-83
2022/10/25 02:20:27;;;;;;;8.18;3.35;;;;;;;13.59;100.00;100469.84;4947933;28;20061;-82
2022/10/25 02:22:56;;;;;;;9.55;3.00;;;;;;;13.59;100.00;100462.75;4967074;28;20110;-82
2022/10/25 02:25:24;;;;;;;11.77;3.25;;;;;;;13.58;100.00;100470.78;4973215;28;20038;-82
2022/10/25 02:27:52;;;;;;;9.38;3.38;;;;;;;13.59;100.00;100472.47;4978695;28;20110;-84
2022/10/25 02:30:20;;;;;;;8.15;3.10;;;;;;;13.61;100.00;100468.78;4976870;28;20034;-84
2022/10/25 02:32:47;;;;;;;9.68;3.45;;;;;;;13.62;100.00;100472.25;4973022;28;20046;-83
2022/10/25 02:35:17;;;;;;;8.45;2.75;;;;;;;13.64;100.00;100475.63;4966447;28;20049;-84
2022/10/25 02:37:45;;;;;;;7.20;2.92;;;;;;;13.69;100.00;100476.16;4966675;28;20056;-83
2022/10/25 02:40:13;;;;;;;5.38;3.08;;;;;;;13.72;100.00;100475.06;4993789;28;20038;-83
2022/10/25 02:42:40;;;;;;;8.25;3.38;;;;;;;13.75;100.00;100474.84;4951114;28;20050;-82
2022/10/25 02:45:09;;;;;;;10.57;4.15;;;;;;;13.76;100.00;100473.88;4975745;28;20046;-83
2022/10/25 02:47:36;;;;;;;7.60;2.40;;;;;;;13.73;100.00;100467.00;4978310;28;20073;-83
2022/10/25 02:50:04;;;;;;;10.57;3.28;;;;;;;13.70;100.00;100472.53;4970586;28;20056;-83
2022/10/25 02:52:31;;;;;;;5.70;2.75;;;;;;;13.67;100.00;100476.25;5002329;28;20050;-83
2022/10/25 02:54:59;;;;;;;7.88;2.78;;;;;;;13.67;100.00;100481.53;4957738;28;20504;-83
2022/10/25 02:57:32;;;;;;;12.02;3.45;;;;;;;13.64;100.00;100483.56;4958255;28;20058;-83
2022/10/25 03:00:00;;;;;;;10.30;2.97;;;;;;;13.64;100.00;100481.78;4952247;28;20046;-83
2022/10/25 03:02:28;;;;;;;6.85;2.78;;;;;;;13.63;100.00;100479.22;4974096;28;20042;-84
2022/10/25 03:04:55;;;;;;;12.45;3.45;;;;;;;13.67;100.00;100489.47;4955759;28;20042;-84
2022/10/25 03:07:23;;;;;;;9.57;2.80;;;;;;;13.72;100.00;100483.84;4965140;28;20038;-83
2022/10/25 03:09:51;;;;;;;7.10;2.50;;;;;;;13.75;100.00;100496.84;4946537;28;20046;-82
2022/10/25 03:12:18;;;;;;;7.13;3.03;;;;;;;13.84;100.00;100490.88;4959361;28;20061;-84
2022/10/25 03:14:45;;;;;;;9.48;2.85;;;;;;;13.80;100.00;100491.22;4967600;28;20054;-84
2022/10/25 03:17:13;;;;;;;6.43;2.47;;;;;;;13.80;100.00;100496.50;4974213;28;20108;-84
2022/10/25 03:19:40;;;;;;;13.35;3.65;;;;;;;13.77;100.00;100494.91;4961891;28;20050;-83
2022/10/25 03:22:08;;;;;;;9.38;2.97;;;;;;;13.74;100.00;100495.16;4972586;28;20134;-82
2022/10/25 03:24:35;;;;;;;11.93;3.22;;;;;;;13.70;100.00;100493.72;4974238;28;20054;-83
2022/10/25 03:27:03;;;;;;;8.85;3.10;;;;;;;13.72;100.00;100498.88;4984196;28;20069;-83
2022/10/25 03:29:30;;;;;;;6.43;2.20;;;;;;;13.68;100.00;100493.81;4992469;28;20027;-82
2022/10/25 03:31:58;;;;;;;10.77;3.08;;;;;;;13.67;100.00;100500.06;4961856;28;20065;-83
2022/10/25 03:34:26;;;;;;;8.93;2.90;;;;;;;13.66;100.00;100502.81;4970975;28;20058;-82
2022/10/25 03:36:53;;;;;;;8.20;3.13;;;;;;;13.62;100.00;100507.50;4991024;28;20038;-82
2022/10/25 03:39:21;;;;;;;9.23;2.63;;;;;;;13.63;100.00;100509.16;4982803;28;20338;-82
2022/10/25 03:41:49;;;;;;;6.30;2.58;;;;;;;13.68;100.00;100514.13;4965980;28;20043;-82
2022/10/25 03:44:16;;;;;;;9.25;2.42;;;;;;;13.66;100.00;100518.69;4961452;28;20493;-82
2022/10/25 03:46:44;;;;;;;9.32;2.70;;;;;;;13.63;100.00;100519.75;4969536;28;20062;-83
2022/10/25 03:49:11;;;;;;;6.68;2.03;;;;;;;13.63;100.00;100517.09;4957452;28;20055;-83
2022/10/25 03:51:39;;;;;;;11.70;3.08;;;;;;;13.64;100.00;100516.19;4971101;28;20102;-83
2022/10/25 03:54:06;;;;;;;7.63;2.30;;;;;;;13.68;100.00;100517.59;4949886;28;20100;-83
2022/10/25 03:56:34;;;;;;;7.78;2.10;;;;;;;13.66;100.00;100518.69;4949915;28;20089;-83
2022/10/25 03:59:01;;;;;;;7.88;2.65;;;;;;;13.63;100.00;100517.09;4945217;28;20046;-83
2022/10/25 04:01:32;;;;;;;9.00;1.95;;;;;;;13.66;100.00;100524.00;4939867;28;20744;-82
2022/10/25 04:04:00;;;;;;;7.53;2.08;;;;;;;13.65;100.00;100525.78;4972936;28;20110;-83
2022/10/25 04:06:28;;;;;;;9.25;2.42;;;;;;;13.72;100.00;100534.09;4979692;28;20058;-82
2022/10/25 04:08:56;;;;;;;6.63;2.30;;;;;;;13.71;100.00;100534.22;4980198;28;20042;-83
2022/10/25 04:11:23;;;;;;;4.10;1.90;;;;;;;13.74;100.00;100537.50;4983801;28;20054;-82
2022/10/25 04:13:51;;;;;;;10.23;2.38;;;;;;;13.68;100.00;100532.63;4967272;28;20123;-83
2022/10/25 04:16:18;;;;;;;5.05;1.77;;;;;;;13.71;100.00;100539.53;4981444;28;20386;-83
2022/10/25 04:18:46;;;;;;;5.40;2.08;;;;;;;13.74;100.00;100537.50;4978765;28;20053;-82
2022/10/25 04:21:13;;;;;;;8.45;1.85;;;;;;;13.69;100.00;100539.66;4966237;28;20053;-83
2022/10/25 04:23:41;;;;;;;6.18;2.33;;;;;;;13.67;100.00;100542.38;4971522;28;20046;-83
2022/10/25 04:26:08;;;;;;;4.43;1.58;;;;;;;13.62;100.00;100546.31;4953036;28;20071;-83
2022/10/25 04:28:36;;;;;;;7.47;2.60;;;;;;;13.57;100.00;100541.38;4973750;28;20038;-83
2022/10/25 04:31:03;;;;;;;5.95;1.50;;;;;;;13.61;100.00;100545.47;4992206;28;20118;-82
2022/10/25 04:33:31;;;;;;;6.30;1.67;;;;;;;13.54;100.00;100538.94;4978301;28;20055;-82
2022/10/25 04:35:59;;;;;;;5.88;1.40;;;;;;;13.55;100.00;100537.97;4972303;28;20128;-82
2022/10/25 04:38:26;;;;;;;8.98;1.73;;;;;;;13.51;100.00;100533.03;4961870;28;20042;-82
2022/10/25 04:40:55;;;;;;;5.45;1.60;;;;;;;13.61;100.00;100532.25;4960483;28;20058;-82
2022/10/25 04:43:23;;;;;;;5.18;2.13;;;;;;;13.59;100.00;100536.81;4989950;28;20054;-83
2022/10/25 04:45:51;;;;;;;4.90;1.58;;;;;;;13.54;100.00;100538.09;4989688;28;20068;-83
2022/10/25 04:48:20;;;;;;;4.97;1.60;;;;;;;13.60;100.00;100537.66;4970466;28;20081;-83
2022/10/25 04:50:48;;;;;;;4.07;1.45;;;;;;;13.56;100.00;100530.91;4983807;28;20474;-82
2022/10/25 04:53:15;;;;;;;3.72;1.58;;;;;;;13.57;100.00;100530.78;4955087;28;20129;-82
2022/10/25 04:55:43;;;;;;;6.22;1.52;;;;;;;13.59;100.00;100539.44;4980724;28;20042;-82
2022/10/25 04:58:10;;;;;;;4.97;1.90;;;;;;;13.53;100.00;100542.53;4980143;28;20121;-82
2022/10/25 05:00:38;;;;;;;6.15;1.80;;;;;;;13.52;100.00;100537.38;4977645;28;20065;-82
2022/10/25 05:03:05;;;;;;;6.72;1.73;;;;;;;13.54;100.00;100540.75;4955370;28;20065;-83
2022/10/25 05:05:39;;;;;;;8.38;1.70;;;;;;;13.56;100.00;100542.34;4979429;28;20451;-82
2022/10/25 05:12:33;;;;;;;7.90;1.95;;;;;;;13.45;100.00;100542.25;5003318;28;20491;-84
2022/10/25 05:15:01;;;;;;;9.15;2.08;;;;;;;13.34;100.00;100550.13;4971681;28;20061;-84
2022/10/25 05:17:29;;;;;;;5.70;1.55;;;;;;;13.37;100.00;100539.31;4946016;28;20249;-84
2022/10/25 05:19:57;;;;;;;7.75;2.03;;;;;;;13.31;100.00;100539.75;4941907;28;20114;-84
2022/10/25 05:23:14;;;;;;;5.35;2.30;;;;;;;13.17;100.00;100536.25;4980994;28;20054;-83
2022/10/25 05:25:42;;;;;;;5.28;2.22;;;;;;;13.23;100.00;100542.94;4981600;28;20055;-84
2022/10/25 05:28:10;;;;;;;10.43;2.55;;;;;;;13.24;100.00;100533.22;4985225;28;20049;-83
2022/10/25 05:30:41;;;;;;;6.22;1.90;;;;;;;13.27;100.00;100544.41;4953503;28;20246;-84
2022/10/25 05:33:09;;;;;;;6.90;1.77;;;;;;;13.24;100.00;100541.13;4973282;28;20042;-83
2022/10/25 05:35:36;;;;;;;5.40;2.10;;;;;;;13.25;100.00;100551.63;4980511;28;20061;-82
2022/10/25 05:38:04;;;;;;;5.72;1.60;;;;;;;13.23;100.00;100552.69;4962790;28;20047;-82
2022/10/25 05:40:31;;;;;;;6.15;2.05;;;;;;;13.21;100.00;100557.22;4973548;28;20409;-84
2022/10/25 05:42:59;;;;;;;9.23;3.80;;;;;;;13.28;100.00;100551.38;4952154;28;20049;-83
2022/10/25 05:45:26;;;;;;;9.60;2.15;;;;;;;13.36;100.00;100561.41;4983105;28;20039;-83
2022/10/25 05:47:54;;;;;;;8.73;2.60;;;;;;;13.36;100.00;100554.34;4990454;28;20066;-84
2022/10/25 05:50:21;;;;;;;7.72;2.42;;;;;;;13.35;100.00;100562.38;4966304;28;20046;-83
2022/10/25 05:52:49;;;;;;;7.00;2.22;;;;;;;13.35;100.00;100565.03;4964508;28;20038;-83
2022/10/25 05:55:16;;;;;;;7.25;1.73;;;;;;;13.23;100.00;100577.31;5005456;28;20129;-83
2022/10/25 05:57:50;;;;;;;8.50;2.70;;;;;;;13.24;100.00;100568.44;4942267;28;20258;-83
2022/10/25 06:00:17;;;;;;;9.60;2.10;;;;;;;13.23;100.00;100573.81;4970854;28;20046;-84
2022/10/25 06:02:45;;;;;;;3.17;1.70;;;;;;;13.20;100.00;100584.59;4965550;28;20457;-83
2022/10/25 06:05:13;;;;;;;8.88;1.45;;;;;;;13.23;100.00;100587.03;4969300;28;21864;-84
2022/10/25 06:07:41;;;;;;;3.45;1.50;;;;;;;13.27;100.00;100592.00;4950717;28;20065;-84
2022/10/25 06:10:09;;;;;;;9.10;2.20;;;;;;;13.22;100.00;100590.63;4977855;28;20038;-84
2022/10/25 06:12:37;;;;;;;8.27;1.58;;;;;;;13.28;100.00;100596.31;4978511;28;20121;-83
2022/10/25 06:15:05;;;;;;;8.13;1.80;;;;;;;13.35;100.00;100596.75;4968808;28;20054;-82
2022/10/25 06:17:33;;;;;;;10.20;2.85;;;;;;;13.37;100.00;100602.78;4966415;28;20046;-83
2022/10/25 06:20:00;;;;;;;7.50;1.70;;;;;;;13.37;100.00;100602.78;4961171;28;20038;-81
2022/10/25 06:22:28;;;;;;;10.38;1.95;;;;;;;13.30;100.00;100606.81;4994743;28;20062;-83
2022/10/25 06:24:56;;;;;;;7.38;1.70;;;;;;;13.30;100.00;100609.47;4972645;28;20057;-82
2022/10/25 06:27:23;;;;;;;5.57;1.60;;;;;;;13.29;100.00;100599.84;4965195;28;20034;-82
2022/10/25 06:29:52;;;;;;;11.45;1.58;;;;;;;13.30;100.00;100606.81;4993160;28;20085;-83
2022/10/25 06:32:19;;;;;;;11.80;1.45;;;;;;;13.38;100.00;100615.91;4991140;28;20034;-83
2022/10/25 06:34:46;;;;;;;5.47;1.30;;;;;;;13.38;100.00;100615.91;4980274;28;20038;-83
2022/10/25 06:37:14;;;;;;;6.63;1.70;;;;;;;13.42;100.00;100625.31;4970642;28;20042;-82
2022/10/25 06:39:42;;;;;;;6.88;1.70;;;;;;;13.42;100.00;100621.81;4992655;28;20089;-83
2022/10/25 06:42:09;;;;;;;4.68;1.42;;;;;;;13.40;100.00;100627.19;4964460;28;20061;-83
2022/10/25 06:44:37;;;;;;;4.65;1.83;;;;;;;13.43;100.00;100621.69;4984242;28;20060;-83
2022/10/25 06:47:04;;;;;;;5.65;1.30;;;;;;;13.44;100.00;100622.53;4966959;28;20096;-83
2022/10/25 06:49:44;;;;;;;10.00;1.50;;;;;;;13.45;100.00;100631.31;4972103;28;20065;-82
2022/10/25 06:52:12;;;;;;;7.28;1.65;;;;;;;13.41;100.00;100634.16;4987032;28;20060;-84
2022/10/25 06:54:40;;;;;;;6.40;1.30;;;;;;;13.45;100.00;100641.91;4968821;28;20271;-83
2022/10/25 06:57:07;;;;;;;6.05;1.60;;;;;;;13.46;100.00;100644.44;4955732;28;20070;-83
2022/10/25 06:59:34;;;;;;;7.60;1.60;;;;;;;13.48;100.00;100645.19;5012833;28;20069;-83
2022/10/25 07:02:02;;;;;;;6.10;1.67;;;;;;;13.56;100.00;100642.84;4981630;28;20050;-82
2022/10/25 07:04:31;;;;;;;5.68;1.60;;;;;;;13.53;100.00;100650.13;4983758;28;20088;-83
2022/10/25 07:06:58;;;;;;;9.68;1.85;;;;;;;13.58;100.00;100648.00;4964002;28;20066;-82
2022/10/25 07:09:26;;;;;;;5.40;1.60;;;;;;;13.55;100.00;100654.34;4974456;28;20050;-82
2022/10/25 07:11:53;;;;;;;6.53;1.80;;;;;;;13.63;100.00;100656.47;4983601;28;20066;-82
2022/10/25 07:14:21;;;;;;;9.60;2.30;;;;;;;13.61;100.00;100659.22;4994280;28;20050;-82
2022/10/25 07:16:49;;;;;;;4.28;1.60;;;;;;;13.60;100.00;100662.00;4952686;28;20034;-83
2022/10/25 07:19:16;;;;;;;9.40;1.50;;;;;;;13.59;100.00;100666.41;4970638;28;20061;-84
2022/10/25 07:21:44;;;;;;;7.32;1.55;;;;;;;13.58;100.00;100669.16;4970317;28;20077;-83
2022/10/25 07:24:12;;;;;;;12.35;1.88;;;;;;;13.56;100.00;100666.66;4994627;28;20068;-83
2022/10/25 07:26:39;;;;;;;7.60;2.15;;;;;;;13.60;100.00;100668.13;4962254;28;20031;-83
2022/10/25 07:29:07;;;;;;;10.70;2.03;;;;;;;13.62;100.00;100671.50;4982682;28;20046;-83
2022/10/25 07:31:43;;;;;;;7.13;1.95;;;;;;;13.65;100.00;100673.09;4976804;28;20046;-83
2022/10/25 07:34:13;;;;;;;;;;;;;;;13.67;100.00;100669.34;4965405;28;20026;-82
2022/10/25 07:36:41;;;;;;;11.25;1.95;;;;;;;13.67;100.00;100677.28;4977025;28;19922;-83
2022/10/25 07:39:08;;;;;;;10.80;1.98;;;;;;;13.70;100.00;100673.59;4991264;28;20452;-82
2022/10/25 07:41:36;;;;;;;12.93;2.72;;;;;;;13.75;100.00;100686.50;4967111;28;20058;-82
2022/10/25 07:44:03;;;;;;;8.15;1.80;;;;;;;13.74;100.00;100680.38;4979059;28;20053;-83
2022/10/25 07:46:31;;;;;;;6.25;1.75;;;;;;;13.74;100.00;100672.44;4967181;28;20042;-83
2022/10/25 07:48:58;;;;;;;6.18;2.28;;;;;;;13.77;100.00;100680.13;5006135;28;20046;-83
2022/10/25 07:51:26;;;;;;;9.18;2.08;;;;;;;13.75;100.00;100681.22;4982520;28;20043;-83
2022/10/25 07:53:53;;;;;;;9.18;2.20;;;;;;;13.78;100.00;100687.13;4963895;28;20579;-83
2022/10/25 07:56:21;;;;;;;10.68;2.38;;;;;;;13.84;100.00;100677.91;4954561;28;20042;-83
2022/10/25 07:58:51;;;;;;;8.38;1.50;;;;;;;13.89;100.00;100686.34;4958489;28;20052;-84
2022/10/25 08:01:21;;;;;;;9.93;1.90;;;;;;;14.04;100.00;100681.75;4951563;28;20038;-82
2022/10/25 08:03:53;;;;;;;7.63;1.60;;;;;;;13.99;100.00;100682.09;4960324;28;20073;-83
2022/10/25 08:06:22;;;;;;;8.18;1.98;;;;;;;13.82;100.00;100678.00;4978878;28;20034;-84
2022/10/25 08:08:50;;;;;;;4.25;1.60;;;;;;;13.85;100.00;100687.53;4953314;28;20030;-83
2022/10/25 08:11:17;;;;;;;4.20;1.40;;;;;;;13.85;100.00;100684.88;4955643;28;20046;-84
2022/10/25 08:13:49;;;;;;;6.05;2.78;;;;;;;13.83;100.00;100686.81;4970244;28;20065;-84
2022/10/25 08:16:17;;;;;;;9.73;1.77;;;;;;;13.76;100.00;100691.69;4955147;28;20119;-84
2022/10/25 08:18:44;;;;;;;5.15;1.83;;;;;;;13.79;100.00;100695.91;4951452;28;20054;-84
2022/10/25 08:21:12;;;;;;;5.95;1.77;;;;;;;13.71;100.00;100691.16;4963108;28;20133;-83
2022/10/25 08:23:40;;;;;;;6.50;1.63;;;;;;;13.72;100.00;100692.84;4965002;28;20436;-83
2022/10/25 08:26:07;;;;;;;6.85;2.13;;;;;;;13.78;100.00;100696.84;4958233;28;20046;-83
2022/10/25 08:28:35;;;;;;;9.45;1.90;;;;;;;13.81;100.00;100696.63;4963561;28;20556;-83
2022/10/25 08:31:03;;;;;;;6.63;1.52;;;;;;;13.80;100.00;100695.78;4953259;28;20057;-83
2022/10/25 08:33:31;;;;;;;10.88;2.25;;;;;;;13.82;100.00;100700.97;4969119;28;20260;-84
2022/10/25 08:36:00;;;;;;;7.63;1.70;;;;;;;13.90;100.00;100690.69;4978581;28;20448;-84
2022/10/25 08:38:28;;;;;;;6.53;1.95;;;;;;;13.90;100.00;100696.81;4964361;28;20042;-84
2022/10/25 08:40:59;;;;;;;8.73;2.40;;;;;;;13.91;100.00;100703.84;4963174;28;20058;-83
2022/10/25 08:43:52;;;;;;;6.85;1.88;;;;;;;13.89;100.00;100694.28;4980123;28;20444;-83
2022/10/25 08:46:51;;;;;;;4.85;1.40;;;;;;;13.90;100.00;100703.91;4946689;28;20069;-82
2022/10/25 08:49:28;;;;;;;7.78;1.63;;;;;;;13.88;100.00;100700.56;4956895;28;20420;-83
2022/10/25 08:51:57;;;;;;;5.85;1.42;;;;;;;13.83;100.00;100705.31;4958860;28;20046;-83
2022/10/25 08:54:40;;;;;;;7.65;1.75;;;;;;;13.82;100.00;100712.41;4983950;28;20485;-82
2022/10/25 08:57:23;;;;;;;9.82;2.13;;;;;;;13.84;100.00;100709.66;4976693;28;20429;-83
2022/10/25 08:59:56;;;;;;;10.95;2.33;;;;;;;13.84;100.00;100712.31;4980784;28;20135;-83
2022/10/25 09:02:45;;;;;;;9.73;2.53;;;;;;;13.88;100.00;100703.19;4959733;28;20050;-82
2022/10/25 09:05:38;;;;;;;14.90;2.30;;;;;;;13.93;100.00;100707.19;4952405;28;20042;-83
2022/10/25 09:08:24;;;;;;;9.73;1.77;;;;;;;14.00;100.00;100717.34;4973430;28;20060;-83
2022/10/25 09:10:57;;;;;;;6.05;2.13;;;;;;;14.05;100.00;100717.84;4992953;28;20050;-83
2022/10/25 09:13:31;;;;;;;9.70;2.30;;;;;;;14.08;100.00;100718.47;4980515;28;20049;-83
2022/10/25 09:16:02;;;;;;;8.80;2.00;;;;;;;14.11;100.00;100714.78;4966211;28;20078;-83
2022/10/25 09:18:46;;;;;;;11.30;1.90;;;;;;;14.16;100.00;100723.22;4962943;28;20044;-83
2022/10/25 09:21:17;;;;;;;5.50;1.52;;;;;;;14.19;100.00;100729.16;4969664;28;20309;-83
2022/10/25 09:24:03;;;;;;;9.82;1.90;;;;;;;14.18;100.00;100721.31;4965068;28;20064;-83
2022/10/25 09:26:36;;;;;;;6.07;1.98;;;;;;;14.18;100.00;100735.41;4948460;28;20038;-83
2022/10/25 09:29:26;;;;;;;8.50;2.25;;;;;;;14.22;100.00;100736.00;4977428;28;20054;-83
2022/10/25 09:31:58;;;;;;;7.50;1.80;;;;;;;14.30;100.00;100727.53;4989115;28;20058;-83
2022/10/25 09:34:34;;;;;;;9.10;2.53;;;;;;;14.33;100.00;100737.91;4982766;28;20295;-83
2022/10/25 09:37:29;;;;;;;10.85;2.60;;;;;;;14.36;100.00;100740.31;4992415;28;20058;-83
2022/10/25 09:40:00;;;;;;;9.90;2.03;;;;;;;14.45;100.00;100747.56;4966338;28;20080;-82
2022/10/25 09:42:36;;;;;;;8.93;1.75;;;;;;;14.43;100.00;100741.56;4979785;28;20042;-82
2022/10/25 09:45:06;;;;;;;9.05;1.65;;;;;;;14.55;100.00;100748.66;4952589;28;20131;-82
2022/10/25 09:47:58;;;;;;;7.97;2.15;;;;;;;14.60;100.00;100741.19;5000528;28;20042;-82
2022/10/25 09:50:29;;;;;;;5.97;1.80;;;;;;;14.69;100.00;100747.63;4981511;28;20077;-82
2022/10/25 09:52:59;;;;;;;7.38;1.60;;;;;;;14.72;98.96;100742.09;4958862;28;20057;-82
2022/10/25 09:55:32;;;;;;;9.05;2.05;;;;;;;14.74;99.37;100749.94;4997451;28;20046;-82
2022/10/25 09:58:00;;;;;;;7.25;2.63;;;;;;;14.79;99.16;100745.13;4965898;28;20042;-82
2022/10/25 10:00:28;;;;;;;10.20;2.05;;;;;;;14.83;98.16;100743.94;4970335;28;20036;-82
2022/10/25 10:02:56;;;;;;;11.68;2.15;;;;;;;14.80;97.13;100752.13;4998250;28;20072;-83
2022/10/25 10:05:24;;;;;;;7.93;2.25;;;;;;;14.78;96.65;100757.53;4996684;28;20050;-82
2022/10/25 10:07:53;;;;;;;6.78;1.92;;;;;;;14.84;95.82;100756.22;4963489;28;20092;-82
2022/10/25 10:10:29;;;;;;;10.30;2.65;;;;;;;14.86;96.17;100760.47;4960656;28;20047;-83
2022/10/25 10:13:02;;;;;;;7.53;2.05;;;;;;;14.83;96.23;100755.41;4991802;28;20077;-82
2022/10/25 10:15:34;;;;;;;10.32;1.95;;;;;;;15.00;94.18;100763.91;4999450;28;20047;-83
2022/10/25 10:18:31;;;;;;;8.95;2.08;;;;;;;14.90;94.59;100756.63;4959441;28;20039;-82
2022/10/25 10:21:09;;;;;;;10.43;2.08;;;;;;;14.88;94.84;100757.69;4963080;28;20050;-83
2022/10/25 10:23:44;;;;;;;10.50;2.03;;;;;;;14.97;94.20;100767.63;4987947;28;20050;-83
2022/10/25 10:26:42;;;;;;;7.93;2.05;;;;;;;14.93;94.24;100760.84;4978618;28;20034;-83
2022/10/25 10:29:12;;;;;;;8.93;1.50;;;;;;;14.83;94.63;100766.00;4955977;28;20042;-83
2022/10/25 10:31:46;;;;;;;8.27;2.35;;;;;;;14.88;95.05;100763.84;4970944;28;20113;-82
2022/10/25 10:34:23;;;;;;;7.30;1.70;;;;;;;14.88;94.61;100773.59;4962801;28;20080;-82
2022/10/25 10:37:27;;;;;;;12.40;2.63;;;;;;;14.80;94.93;100770.66;4965051;28;20098;-82
2022/10/25 10:40:00;;;;;;;10.00;2.53;;;;;;;14.87;94.68;100774.56;4911972;29;20071;-83
2022/10/25 10:42:34;;;;;;;5.10;1.50;;;;;;;14.87;94.85;100766.63;4957830;28;20113;-84
2022/10/25 10:45:06;;;;;;;9.15;2.28;;;;;;;14.88;95.22;100774.44;4969897;28;20145;-83
2022/10/25 10:47:49;;;;;;;4.93;1.98;;;;;;;14.90;94.65;100776.97;4973098;28;20042;-83
2022/10/25 10:50:23;;;;;;;5.07;2.00;;;;;;;14.93;93.91;100771.44;4998471;28;20251;-83
2022/10/25 10:53:12;;;;;;;9.80;2.25;;;;;;;15.01;92.98;100774.38;5002223;28;20039;-83
2022/10/25 10:55:48;;;;;;;8.48;2.00;;;;;;;15.06;92.44;100774.03;4960901;28;20027;-83
2022/10/25 10:58:19;;;;;;;12.48;2.60;;;;;;;14.99;92.68;100776.28;4961795;28;20062;-83
2022/10/25 11:00:55;;;;;;;9.68;2.08;;;;;;;14.97;93.25;100782.69;4966386;28;20072;-83
2022/10/25 11:03:40;;;;;;;6.75;2.30;;;;;;;14.97;92.99;100778.22;4972016;28;20036;-84
2022/10/25 11:06:31;;;;;;;9.27;1.92;;;;;;;15.01;93.34;100776.19;4987681;28;20110;-84
2022/10/25 11:09:11;;;;;;;7.18;2.20;;;;;;;15.09;93.87;100781.75;4985705;28;20050;-84
2022/10/25 11:11:39;;;;;;;9.45;2.00;;;;;;;15.17;93.67;100766.09;4982096;28;20056;-83
2022/10/25 11:14:18;;;;;;;10.80;2.55;;;;;;;15.33;92.44;100784.34;4958457;28;20121;-83
2022/10/25 11:17:14;;;;;;;6.68;2.10;;;;;;;15.41;90.75;100776.66;4969599;28;20042;-83
2022/10/25 11:20:20;;;;;;;7.13;2.20;;;;;;;15.54;90.72;100782.72;4971638;28;20446;-84
2022/10/25 11:22:57;;;;;;;10.25;2.55;;;;;;;15.68;88.55;100776.38;4995526;28;20038;-83
2022/10/25 11:25:58;;;;;;;10.90;2.38;;;;;;;15.63;87.46;100778.50;4964757;28;20069;-81
2022/10/25 11:28:46;;;;;;;10.23;1.80;;;;;;;15.62;86.38;100790.91;4994157;28;20038;-82
2022/10/25 11:31:47;;;;;;;8.38;2.17;;;;;;;15.60;86.50;100773.44;4967592;28;20106;-82
2022/10/25 11:34:26;;;;;;;5.30;1.85;;;;;;;15.61;86.53;100786.56;5004427;28;20038;-82
2022/10/25 11:37:09;;;;;;;10.07;2.20;;;;;;;15.60;86.71;100766.31;4986769;28;20033;-83
2022/10/25 11:39:52;;;;;;;9.38;1.92;;;;;;;15.73;86.26;100774.19;4987276;28;20045;-82
2022/10/25 11:42:34;;;;;;;10.52;3.78;;;;;;;15.74;85.75;100781.19;4993483;28;20050;-82
2022/10/25 11:45:17;;;;;;;4.78;1.73;;;;;;;15.79;85.45;100780.81;4977993;28;20410;-82
2022/10/25 11:47:52;;;;;;;10.75;2.20;;;;;;;15.82;85.11;100767.31;4974903;28;20046;-82